Time,TemperatureF,DewpointF,PressureIn,WindDirection,WindDirectionDegrees,WindSpeedMPH,WindSpeedGustMPH,Humidity,HourlyPrecipIn,Conditions,Clouds,dailyrainin,SoftwareType,DateUTC
2013-09-30 00:53:00,58.0,54.0,30.06,ENE,68,0.0,0.0,87,0.00,,,0.00,,2013-09-30 04:53:00,
2013-09-30 01:03:00,58.0,54.0,30.06,ENE,68,0.0,0.0,87,0.00,,,0.00,,2013-09-30 05:03:00,
2013-09-30 01:12:00,58.0,54.0,30.06,ENE,68,0.0,0.0,87,0.00,,,0.00,,2013-09-30 05:12:00,
2013-09-30 01:23:00,58.0,54.0,30.06,ENE,68,0.0,0.0,87,0.00,,,0.00,,2013-09-30 05:23:00,
2013-09-30 01:52:00,57.0,53.0,30.06,NE,45,0.0,0.0,87,0.00,,,0.00,,2013-09-30 05:52:00,
2013-09-30 02:03:00,57.0,53.0,30.06,NE,45,0.0,0.0,87,0.00,,,0.00,,2013-09-30 06:03:00,
2013-09-30 02:12:00,57.0,53.0,30.06,NE,45,0.0,0.0,87,0.00,,,0.00,,2013-09-30 06:12:00,
2013-09-30 03:12:00,56.0,53.0,30.06,NE,45,0.0,0.0,89,0.00,,,0.00,,2013-09-30 07:12:00,
2013-09-30 03:22:00,56.0,53.0,30.06,NE,45,0.0,0.0,89,0.00,,,0.00,,2013-09-30 07:22:00,
2013-09-30 03:32:00,56.0,53.0,30.06,NE,45,0.0,0.0,89,0.00,,,0.00,,2013-09-30 07:32:00,
2013-09-30 03:53:00,57.0,54.0,30.06,NNE,22,0.0,0.0,90,0.00,,,0.00,,2013-09-30 07:53:00,
2013-09-30 04:02:00,57.0,54.0,30.06,NNE,22,0.0,0.0,90,0.00,,,0.00,,2013-09-30 08:02:00,
2013-09-30 04:12:00,57.0,54.0,30.06,NNE,22,0.0,0.0,90,0.00,,,0.00,,2013-09-30 08:12:00,
2013-09-30 04:22:00,57.0,54.0,30.06,NNE,22,0.0,0.0,90,0.00,,,0.00,,2013-09-30 08:22:00,
2013-09-30 04:52:00,57.0,54.0,30.06,North,0,0.0,0.0,90,0.00,,,0.00,,2013-09-30 08:52:00,
2013-09-30 05:22:00,57.0,54.0,30.06,NNE,22,0.0,0.0,91,0.00,,,0.00,,2013-09-30 09:22:00,
2013-09-30 05:53:00,57.0,54.0,30.06,NNE,22,0.0,0.0,91,0.00,,,0.00,,2013-09-30 09:53:00,
2013-09-30 06:03:00,57.0,54.0,30.06,NNE,22,0.0,0.0,91,0.00,,,0.00,,2013-09-30 10:03:00,
2013-09-30 06:23:00,56.0,53.0,30.06,NNE,22,0.0,0.0,91,0.00,,,0.00,,2013-09-30 10:23:00,
2013-09-30 06:53:00,56.0,53.0,30.06,NNE,22,0.0,0.0,91,0.00,,,0.00,,2013-09-30 10:53:00,
2013-09-30 07:12:00,56.0,53.0,30.06,NNE,22,0.0,0.0,90,0.00,,,0.00,,2013-09-30 11:12:00,
2013-09-30 07:22:00,56.0,53.0,30.06,NNE,22,0.0,0.0,90,0.00,,,0.00,,2013-09-30 11:22:00,
2013-09-30 07:33:00,56.0,53.0,30.06,NNE,22,0.0,0.0,90,0.00,,,0.00,,2013-09-30 11:33:00,
2013-09-30 07:43:00,56.0,53.0,30.06,NNE,22,0.0,0.0,90,0.00,,,0.00,,2013-09-30 11:43:00,
2013-09-30 08:22:00,58.0,55.0,30.06,ENE,68,0.0,0.0,91,0.00,,,0.00,,2013-09-30 12:22:00,
2013-09-30 08:52:00,59.0,56.0,30.06,East,90,0.0,0.0,91,0.00,,,0.00,,2013-09-30 12:52:00,
2013-09-30 09:22:00,60.0,57.0,30.06,ENE,68,0.0,0.0,89,0.00,,,0.00,,2013-09-30 13:22:00,
2013-09-30 09:52:00,60.0,56.0,30.03,ENE,68,0.0,0.0,88,0.00,,,0.00,,2013-09-30 13:52:00,
2013-09-30 10:11:00,62.0,57.0,30.03,East,90,0.0,0.0,84,0.00,,,0.00,,2013-09-30 14:11:00,
2013-09-30 10:22:00,62.0,57.0,30.03,East,90,0.0,0.0,84,0.00,,,0.00,,2013-09-30 14:22:00,
2013-09-30 10:53:00,64.0,58.0,30.03,SE,135,0.0,0.0,81,0.00,,,0.00,,2013-09-30 14:53:00,
2013-09-30 11:23:00,65.0,58.0,30.03,ENE,68,0.0,0.0,78,0.00,,,0.00,,2013-09-30 15:23:00,
2013-09-30 11:54:00,66.0,58.0,30.00,ESE,112,0.0,0.0,76,0.00,,,0.00,,2013-09-30 15:54:00,
2013-09-30 12:24:00,66.0,57.0,30.00,NE,45,0.0,0.0,74,0.00,,,0.00,,2013-09-30 16:24:00,
2013-09-30 12:53:00,66.0,57.0,30.00,ESE,112,0.0,0.0,72,0.00,,,0.00,,2013-09-30 16:53:00,
2013-09-30 13:23:00,67.0,57.0,30.00,NE,45,0.0,0.0,71,0.00,,,0.00,,2013-09-30 17:23:00,
2013-09-30 13:53:00,68.0,57.0,30.00,East,90,0.0,0.0,69,0.00,,,0.00,,2013-09-30 17:53:00,
2013-09-30 14:22:00,67.0,56.0,30.00,NE,45,0.0,0.0,69,0.00,,,0.00,,2013-09-30 18:22:00,
2013-09-30 14:53:00,67.0,57.0,30.00,NE,45,0.0,0.0,70,0.00,,,0.00,,2013-09-30 18:53:00,
2013-09-30 15:02:00,67.0,57.0,30.00,NE,45,0.0,0.0,70,0.00,,,0.00,,2013-09-30 19:02:00,
2013-09-30 15:12:00,67.0,57.0,30.00,NE,45,0.0,0.0,70,0.00,,,0.00,,2013-09-30 19:12:00,
2013-09-30 15:22:00,67.0,57.0,30.00,NE,45,0.0,0.0,70,0.00,,,0.00,,2013-09-30 19:22:00,
2013-09-30 15:53:00,67.0,56.0,29.97,ENE,68,0.0,0.0,69,0.00,,,0.00,,2013-09-30 19:53:00,
2013-09-30 16:23:00,66.0,56.0,29.97,NE,45,0.0,0.0,70,0.00,,,0.00,,2013-09-30 20:23:00,
2013-09-30 16:53:00,66.0,56.0,29.94,NNE,22,0.0,0.0,69,0.00,,,0.00,,2013-09-30 20:53:00,
2013-09-30 17:11:00,65.0,55.0,29.97,ESE,112,0.0,0.0,70,0.00,,,0.00,,2013-09-30 21:11:00,
2013-09-30 17:23:00,65.0,55.0,29.97,ESE,112,0.0,0.0,70,0.00,,,0.00,,2013-09-30 21:23:00,
2013-09-30 17:54:00,63.0,54.0,29.97,ENE,68,0.0,0.0,73,0.00,,,0.00,,2013-09-30 21:54:00,
2013-09-30 18:24:00,61.0,53.0,29.97,NE,45,0.0,0.0,76,0.00,,,0.00,,2013-09-30 22:24:00,
2013-09-30 18:54:00,60.0,53.0,29.97,ENE,68,0.0,0.0,78,0.00,,,0.00,,2013-09-30 22:54:00,
2013-09-30 19:23:00,59.0,53.0,29.97,North,0,0.0,0.0,80,0.00,,,0.00,,2013-09-30 23:23:00,
2013-09-30 19:34:00,59.0,53.0,29.97,North,0,0.0,0.0,80,0.00,,,0.00,,2013-09-30 23:34:00,
2013-09-30 19:43:00,59.0,53.0,29.97,North,0,0.0,0.0,80,0.00,,,0.00,,2013-09-30 23:43:00,
2013-09-30 19:54:00,59.0,53.0,29.97,North,0,0.0,0.0,80,0.00,,,0.00,,2013-09-30 23:54:00,
2013-09-30 21:22:00,55.0,50.0,29.97,ENE,68,0.0,0.0,83,0.00,,,0.00,,2013-10-01 01:22:00,
2013-09-30 21:52:00,54.0,49.0,29.97,ENE,68,0.0,0.0,84,0.00,,,0.00,,2013-10-01 01:52:00,
2013-09-30 22:22:00,54.0,49.0,29.94,ENE,68,0.0,0.0,84,0.00,,,0.00,,2013-10-01 02:22:00,
2013-09-30 22:52:00,53.0,48.0,29.94,ENE,68,0.0,0.0,84,0.00,,,0.00,,2013-10-01 02:52:00,
2013-09-30 23:22:00,52.0,47.0,29.97,ENE,68,0.0,0.0,84,0.00,,,0.00,,2013-10-01 03:22:00,
2013-09-30 23:55:00,52.0,47.0,29.97,ENE,68,0.0,0.0,84,0.00,,,0.00,,2013-10-01 03:55:00,